sensor_id;sensor_type;location;lat;lon;timestamp;P1;durP1;ratioP1;P2;durP2;ratioP2
9970;SDS011;5026;51.494;11.974;2023-06-14T00:01:54;3.90;;;1.60;;
9970;SDS011;5026;51.494;11.974;2023-06-14T00:04:21;3.57;;;2.00;;
9970;SDS011;5026;51.494;11.974;2023-06-14T00:06:50;2.97;;;1.70;;
9970;SDS011;5026;51.494;11.974;2023-06-14T00:09:19;4.33;;;1.77;;
9970;SDS011;5026;51.494;11.974;2023-06-14T00:11:46;4.80;;;1.90;;
9970;SDS011;5026;51.494;11.974;2023-06-14T00:14:13;2.43;;;2.00;;
9970;SDS011;5026;51.494;11.974;2023-06-14T00:16:41;4.00;;;2.00;;
9970;SDS011;5026;51.494;11.974;2023-06-14T00:19:08;5.33;;;2.00;;
9970;SDS011;5026;51.494;11.974;2023-06-14T00:21:36;2.57;;;1.97;;
9970;SDS011;5026;51.494;11.974;2023-06-14T00:24:03;2.20;;;2.00;;
9970;SDS011;5026;51.494;11.974;2023-06-14T00:26:32;4.00;;;1.90;;
9970;SDS011;5026;51.494;11.974;2023-06-14T00:28:59;2.90;;;2.00;;
9970;SDS011;5026;51.494;11.974;2023-06-14T00:31:26;2.10;;;1.57;;
9970;SDS011;5026;51.494;11.974;2023-06-14T00:33:53;3.70;;;1.87;;
9970;SDS011;5026;51.494;11.974;2023-06-14T00:36:20;2.20;;;2.00;;
9970;SDS011;5026;51.494;11.974;2023-06-14T00:38:47;2.97;;;2.30;;
9970;SDS011;5026;51.494;11.974;2023-06-14T00:41:14;2.87;;;2.00;;
9970;SDS011;5026;51.494;11.974;2023-06-14T00:43:42;3.23;;;2.20;;
9970;SDS011;5026;51.494;11.974;2023-06-14T00:46:09;2.90;;;2.20;;
9970;SDS011;5026;51.494;11.974;2023-06-14T00:48:37;2.90;;;2.00;;
9970;SDS011;5026;51.494;11.974;2023-06-14T00:51:05;4.13;;;2.30;;
9970;SDS011;5026;51.494;11.974;2023-06-14T00:53:33;2.20;;;1.80;;
9970;SDS011;5026;51.494;11.974;2023-06-14T00:56:00;3.10;;;2.40;;
9970;SDS011;5026;51.494;11.974;2023-06-14T00:58:27;5.73;;;2.30;;
9970;SDS011;5026;51.494;11.974;2023-06-14T01:00:56;2.80;;;2.30;;
9970;SDS011;5026;51.494;11.974;2023-06-14T01:03:23;3.83;;;2.20;;
9970;SDS011;5026;51.494;11.974;2023-06-14T01:05:51;3.70;;;2.30;;
9970;SDS011;5026;51.494;11.974;2023-06-14T01:08:28;3.17;;;2.03;;
9970;SDS011;5026;51.494;11.974;2023-06-14T01:11:02;2.37;;;1.80;;
9970;SDS011;5026;51.494;11.974;2023-06-14T01:13:33;2.60;;;2.27;;
9970;SDS011;5026;51.494;11.974;2023-06-14T01:16:04;3.70;;;2.47;;
9970;SDS011;5026;51.494;11.974;2023-06-14T01:18:32;4.00;;;2.10;;
9970;SDS011;5026;51.494;11.974;2023-06-14T01:20:59;5.87;;;2.67;;
9970;SDS011;5026;51.494;11.974;2023-06-14T01:23:32;2.40;;;1.97;;
9970;SDS011;5026;51.494;11.974;2023-06-14T01:25:59;3.77;;;2.23;;
9970;SDS011;5026;51.494;11.974;2023-06-14T01:28:28;2.30;;;2.10;;
9970;SDS011;5026;51.494;11.974;2023-06-14T01:30:59;2.70;;;2.33;;
9970;SDS011;5026;51.494;11.974;2023-06-14T01:33:29;4.07;;;2.40;;
9970;SDS011;5026;51.494;11.974;2023-06-14T01:35:58;4.40;;;2.57;;
9970;SDS011;5026;51.494;11.974;2023-06-14T01:38:27;3.40;;;2.30;;
9970;SDS011;5026;51.494;11.974;2023-06-14T01:40:56;1.97;;;1.87;;
9970;SDS011;5026;51.494;11.974;2023-06-14T01:43:26;5.40;;;2.60;;
9970;SDS011;5026;51.494;11.974;2023-06-14T01:45:56;4.03;;;2.50;;
9970;SDS011;5026;51.494;11.974;2023-06-14T01:48:25;4.53;;;2.57;;
9970;SDS011;5026;51.494;11.974;2023-06-14T01:50:52;2.70;;;2.23;;
9970;SDS011;5026;51.494;11.974;2023-06-14T01:53:20;3.67;;;2.37;;
9970;SDS011;5026;51.494;11.974;2023-06-14T01:55:47;4.83;;;2.60;;
9970;SDS011;5026;51.494;11.974;2023-06-14T01:58:16;2.60;;;2.40;;
9970;SDS011;5026;51.494;11.974;2023-06-14T02:00:43;2.37;;;2.17;;
9970;SDS011;5026;51.494;11.974;2023-06-14T02:03:10;6.53;;;2.80;;
9970;SDS011;5026;51.494;11.974;2023-06-14T02:05:38;4.43;;;3.07;;
9970;SDS011;5026;51.494;11.974;2023-06-14T02:08:05;3.60;;;2.30;;
9970;SDS011;5026;51.494;11.974;2023-06-14T02:10:33;4.07;;;2.50;;
9970;SDS011;5026;51.494;11.974;2023-06-14T02:13:00;6.27;;;2.57;;
9970;SDS011;5026;51.494;11.974;2023-06-14T02:15:28;4.37;;;3.07;;
9970;SDS011;5026;51.494;11.974;2023-06-14T02:17:59;2.90;;;2.47;;
9970;SDS011;5026;51.494;11.974;2023-06-14T02:20:26;4.53;;;2.57;;
9970;SDS011;5026;51.494;11.974;2023-06-14T02:22:54;4.97;;;2.63;;
9970;SDS011;5026;51.494;11.974;2023-06-14T02:25:20;3.90;;;2.73;;
9970;SDS011;5026;51.494;11.974;2023-06-14T02:27:48;5.90;;;2.70;;
9970;SDS011;5026;51.494;11.974;2023-06-14T02:30:15;3.77;;;2.70;;
9970;SDS011;5026;51.494;11.974;2023-06-14T02:32:43;3.50;;;2.50;;
9970;SDS011;5026;51.494;11.974;2023-06-14T02:35:10;2.53;;;2.30;;
9970;SDS011;5026;51.494;11.974;2023-06-14T02:37:38;5.40;;;2.40;;
9970;SDS011;5026;51.494;11.974;2023-06-14T02:40:05;3.00;;;2.40;;
9970;SDS011;5026;51.494;11.974;2023-06-14T02:42:34;4.37;;;2.67;;
9970;SDS011;5026;51.494;11.974;2023-06-14T02:45:01;7.83;;;2.23;;
9970;SDS011;5026;51.494;11.974;2023-06-14T02:47:29;3.57;;;2.57;;
9970;SDS011;5026;51.494;11.974;2023-06-14T02:49:58;3.20;;;2.33;;
9970;SDS011;5026;51.494;11.974;2023-06-14T02:52:25;3.73;;;2.50;;
9970;SDS011;5026;51.494;11.974;2023-06-14T02:54:52;5.20;;;2.83;;
9970;SDS011;5026;51.494;11.974;2023-06-14T02:57:19;3.03;;;2.43;;
9970;SDS011;5026;51.494;11.974;2023-06-14T02:59:46;3.93;;;2.53;;
9970;SDS011;5026;51.494;11.974;2023-06-14T03:02:14;4.47;;;2.70;;
9970;SDS011;5026;51.494;11.974;2023-06-14T03:04:41;3.63;;;2.40;;
9970;SDS011;5026;51.494;11.974;2023-06-14T03:07:11;2.73;;;2.50;;
9970;SDS011;5026;51.494;11.974;2023-06-14T03:09:38;4.60;;;2.67;;
9970;SDS011;5026;51.494;11.974;2023-06-14T03:12:06;3.43;;;3.07;;
9970;SDS011;5026;51.494;11.974;2023-06-14T03:14:34;3.57;;;2.30;;
9970;SDS011;5026;51.494;11.974;2023-06-14T03:17:01;4.83;;;2.43;;
9970;SDS011;5026;51.494;11.974;2023-06-14T03:19:29;4.17;;;2.90;;
9970;SDS011;5026;51.494;11.974;2023-06-14T03:21:57;3.03;;;2.70;;
9970;SDS011;5026;51.494;11.974;2023-06-14T03:24:25;5.23;;;2.90;;
9970;SDS011;5026;51.494;11.974;2023-06-14T03:26:53;2.77;;;2.50;;
9970;SDS011;5026;51.494;11.974;2023-06-14T03:29:21;4.40;;;2.60;;
9970;SDS011;5026;51.494;11.974;2023-06-14T03:31:58;4.00;;;3.17;;
9970;SDS011;5026;51.494;11.974;2023-06-14T03:34:26;3.73;;;2.70;;
9970;SDS011;5026;51.494;11.974;2023-06-14T03:36:53;3.80;;;2.60;;
9970;SDS011;5026;51.494;11.974;2023-06-14T03:39:20;3.03;;;2.50;;
9970;SDS011;5026;51.494;11.974;2023-06-14T03:41:48;3.07;;;2.63;;
9970;SDS011;5026;51.494;11.974;2023-06-14T03:44:15;3.27;;;2.90;;
9970;SDS011;5026;51.494;11.974;2023-06-14T03:46:44;2.83;;;2.57;;
9970;SDS011;5026;51.494;11.974;2023-06-14T03:49:11;5.13;;;3.17;;
9970;SDS011;5026;51.494;11.974;2023-06-14T03:51:38;4.57;;;2.93;;
9970;SDS011;5026;51.494;11.974;2023-06-14T03:54:05;4.33;;;2.90;;
9970;SDS011;5026;51.494;11.974;2023-06-14T03:56:33;2.80;;;2.40;;
9970;SDS011;5026;51.494;11.974;2023-06-14T03:59:01;4.80;;;2.70;;
9970;SDS011;5026;51.494;11.974;2023-06-14T04:01:28;3.57;;;3.00;;
9970;SDS011;5026;51.494;11.974;2023-06-14T04:03:56;3.03;;;2.50;;
9970;SDS011;5026;51.494;11.974;2023-06-14T04:06:24;5.20;;;2.73;;
9970;SDS011;5026;51.494;11.974;2023-06-14T04:08:57;5.60;;;3.00;;
9970;SDS011;5026;51.494;11.974;2023-06-14T04:11:28;3.73;;;3.10;;
9970;SDS011;5026;51.494;11.974;2023-06-14T04:13:56;4.63;;;2.77;;
9970;SDS011;5026;51.494;11.974;2023-06-14T04:16:24;3.73;;;3.10;;
9970;SDS011;5026;51.494;11.974;2023-06-14T04:18:51;6.40;;;3.47;;
9970;SDS011;5026;51.494;11.974;2023-06-14T04:21:19;4.17;;;2.80;;
9970;SDS011;5026;51.494;11.974;2023-06-14T04:23:48;3.00;;;2.80;;
9970;SDS011;5026;51.494;11.974;2023-06-14T04:26:17;4.07;;;3.13;;
9970;SDS011;5026;51.494;11.974;2023-06-14T04:28:46;6.20;;;3.30;;
9970;SDS011;5026;51.494;11.974;2023-06-14T04:31:14;4.90;;;3.20;;
9970;SDS011;5026;51.494;11.974;2023-06-14T04:33:42;6.57;;;3.40;;
9970;SDS011;5026;51.494;11.974;2023-06-14T04:36:11;4.17;;;2.90;;
9970;SDS011;5026;51.494;11.974;2023-06-14T04:38:38;4.13;;;2.70;;
9970;SDS011;5026;51.494;11.974;2023-06-14T04:41:06;6.33;;;3.63;;
9970;SDS011;5026;51.494;11.974;2023-06-14T04:43:36;4.90;;;3.57;;
9970;SDS011;5026;51.494;11.974;2023-06-14T04:46:04;6.93;;;3.30;;
9970;SDS011;5026;51.494;11.974;2023-06-14T04:48:34;4.43;;;3.10;;
9970;SDS011;5026;51.494;11.974;2023-06-14T04:51:02;4.17;;;3.43;;
9970;SDS011;5026;51.494;11.974;2023-06-14T04:53:30;6.07;;;3.27;;
9970;SDS011;5026;51.494;11.974;2023-06-14T04:55:57;4.67;;;3.63;;
9970;SDS011;5026;51.494;11.974;2023-06-14T04:58:25;3.70;;;3.27;;
9970;SDS011;5026;51.494;11.974;2023-06-14T05:00:52;6.50;;;3.40;;
9970;SDS011;5026;51.494;11.974;2023-06-14T05:03:21;3.83;;;3.27;;
9970;SDS011;5026;51.494;11.974;2023-06-14T05:05:49;4.13;;;3.50;;
9970;SDS011;5026;51.494;11.974;2023-06-14T05:08:17;6.67;;;3.90;;
9970;SDS011;5026;51.494;11.974;2023-06-14T05:10:44;5.10;;;3.80;;
9970;SDS011;5026;51.494;11.974;2023-06-14T05:13:11;4.43;;;3.70;;
9970;SDS011;5026;51.494;11.974;2023-06-14T05:15:38;4.83;;;4.07;;
9970;SDS011;5026;51.494;11.974;2023-06-14T05:18:05;5.13;;;3.77;;
9970;SDS011;5026;51.494;11.974;2023-06-14T05:20:34;5.43;;;3.47;;
9970;SDS011;5026;51.494;11.974;2023-06-14T05:23:03;6.47;;;3.33;;
9970;SDS011;5026;51.494;11.974;2023-06-14T05:25:31;6.67;;;3.70;;
9970;SDS011;5026;51.494;11.974;2023-06-14T05:27:58;7.13;;;4.20;;
9970;SDS011;5026;51.494;11.974;2023-06-14T05:30:25;6.15;;;3.47;;
9970;SDS011;5026;51.494;11.974;2023-06-14T05:32:54;3.90;;;3.38;;
9970;SDS011;5026;51.494;11.974;2023-06-14T05:35:21;3.70;;;3.25;;
9970;SDS011;5026;51.494;11.974;2023-06-14T05:37:48;4.00;;;3.50;;
9970;SDS011;5026;51.494;11.974;2023-06-14T05:40:15;4.30;;;3.42;;
9970;SDS011;5026;51.494;11.974;2023-06-14T05:42:44;4.43;;;3.63;;
9970;SDS011;5026;51.494;11.974;2023-06-14T05:45:11;4.38;;;3.35;;
9970;SDS011;5026;51.494;11.974;2023-06-14T05:47:40;4.47;;;3.40;;
9970;SDS011;5026;51.494;11.974;2023-06-14T05:50:07;4.15;;;3.65;;
9970;SDS011;5026;51.494;11.974;2023-06-14T05:52:35;3.78;;;3.47;;
9970;SDS011;5026;51.494;11.974;2023-06-14T05:55:02;6.68;;;3.40;;
9970;SDS011;5026;51.494;11.974;2023-06-14T05:57:30;5.82;;;3.83;;
9970;SDS011;5026;51.494;11.974;2023-06-14T05:59:58;6.03;;;4.15;;
9970;SDS011;5026;51.494;11.974;2023-06-14T06:02:25;5.57;;;3.60;;
9970;SDS011;5026;51.494;11.974;2023-06-14T06:04:52;4.93;;;4.13;;
9970;SDS011;5026;51.494;11.974;2023-06-14T06:07:19;5.38;;;3.95;;
9970;SDS011;5026;51.494;11.974;2023-06-14T06:09:47;5.20;;;4.70;;
9970;SDS011;5026;51.494;11.974;2023-06-14T06:12:14;9.73;;;4.60;;
9970;SDS011;5026;51.494;11.974;2023-06-14T06:14:40;5.72;;;4.00;;
9970;SDS011;5026;51.494;11.974;2023-06-14T06:17:09;6.57;;;3.85;;
9970;SDS011;5026;51.494;11.974;2023-06-14T06:19:36;4.80;;;3.85;;
9970;SDS011;5026;51.494;11.974;2023-06-14T06:22:03;5.70;;;3.67;;
9970;SDS011;5026;51.494;11.974;2023-06-14T06:24:31;5.70;;;4.03;;
9970;SDS011;5026;51.494;11.974;2023-06-14T06:26:58;4.70;;;3.65;;
9970;SDS011;5026;51.494;11.974;2023-06-14T06:29:26;5.88;;;4.70;;
9970;SDS011;5026;51.494;11.974;2023-06-14T06:31:53;7.97;;;4.03;;
9970;SDS011;5026;51.494;11.974;2023-06-14T06:34:22;5.43;;;4.13;;
9970;SDS011;5026;51.494;11.974;2023-06-14T06:36:49;8.23;;;4.13;;
9970;SDS011;5026;51.494;11.974;2023-06-14T06:39:16;4.35;;;3.95;;
9970;SDS011;5026;51.494;11.974;2023-06-14T06:41:43;4.25;;;3.83;;
9970;SDS011;5026;51.494;11.974;2023-06-14T06:44:10;4.50;;;4.10;;
9970;SDS011;5026;51.494;11.974;2023-06-14T06:46:38;4.38;;;3.97;;
9970;SDS011;5026;51.494;11.974;2023-06-14T06:49:06;4.15;;;3.75;;
9970;SDS011;5026;51.494;11.974;2023-06-14T06:51:35;4.00;;;3.70;;
9970;SDS011;5026;51.494;11.974;2023-06-14T06:54:02;4.10;;;3.70;;
9970;SDS011;5026;51.494;11.974;2023-06-14T06:56:31;4.30;;;3.30;;
9970;SDS011;5026;51.494;11.974;2023-06-14T06:58:58;5.00;;;3.80;;
9970;SDS011;5026;51.494;11.974;2023-06-14T07:01:25;6.05;;;3.30;;
9970;SDS011;5026;51.494;11.974;2023-06-14T07:03:53;4.70;;;3.55;;
9970;SDS011;5026;51.494;11.974;2023-06-14T07:06:20;4.95;;;4.43;;
9970;SDS011;5026;51.494;11.974;2023-06-14T07:08:53;3.90;;;3.60;;
9970;SDS011;5026;51.494;11.974;2023-06-14T07:11:20;5.00;;;3.90;;
9970;SDS011;5026;51.494;11.974;2023-06-14T07:13:47;4.38;;;3.10;;
9970;SDS011;5026;51.494;11.974;2023-06-14T07:16:14;7.88;;;3.40;;
9970;SDS011;5026;51.494;11.974;2023-06-14T07:18:41;5.90;;;3.60;;
9970;SDS011;5026;51.494;11.974;2023-06-14T07:21:09;4.10;;;3.50;;
9970;SDS011;5026;51.494;11.974;2023-06-14T07:23:36;4.30;;;3.72;;
9970;SDS011;5026;51.494;11.974;2023-06-14T07:26:04;3.63;;;3.33;;
9970;SDS011;5026;51.494;11.974;2023-06-14T07:28:31;5.95;;;3.80;;
9970;SDS011;5026;51.494;11.974;2023-06-14T07:30:58;4.47;;;3.53;;
9970;SDS011;5026;51.494;11.974;2023-06-14T07:33:26;4.40;;;3.20;;
9970;SDS011;5026;51.494;11.974;2023-06-14T07:35:52;6.28;;;3.53;;
9970;SDS011;5026;51.494;11.974;2023-06-14T07:38:20;3.35;;;3.08;;
9970;SDS011;5026;51.494;11.974;2023-06-14T07:40:47;4.22;;;2.97;;
9970;SDS011;5026;51.494;11.974;2023-06-14T07:43:16;3.60;;;3.30;;
9970;SDS011;5026;51.494;11.974;2023-06-14T07:45:43;3.92;;;3.10;;
9970;SDS011;5026;51.494;11.974;2023-06-14T07:48:10;7.13;;;3.67;;
9970;SDS011;5026;51.494;11.974;2023-06-14T07:50:37;6.07;;;3.47;;
9970;SDS011;5026;51.494;11.974;2023-06-14T07:53:04;5.00;;;3.10;;
9970;SDS011;5026;51.494;11.974;2023-06-14T07:55:31;8.25;;;3.40;;
9970;SDS011;5026;51.494;11.974;2023-06-14T07:58:01;3.95;;;3.47;;
9970;SDS011;5026;51.494;11.974;2023-06-14T08:00:30;4.32;;;3.30;;
9970;SDS011;5026;51.494;11.974;2023-06-14T08:02:57;4.35;;;3.40;;
9970;SDS011;5026;51.494;11.974;2023-06-14T08:05:24;7.70;;;3.17;;
9970;SDS011;5026;51.494;11.974;2023-06-14T08:07:52;3.45;;;3.15;;
9970;SDS011;5026;51.494;11.974;2023-06-14T08:10:18;4.07;;;3.47;;
9970;SDS011;5026;51.494;11.974;2023-06-14T08:12:46;3.88;;;3.58;;
9970;SDS011;5026;51.494;11.974;2023-06-14T08:15:13;4.03;;;3.42;;
9970;SDS011;5026;51.494;11.974;2023-06-14T08:17:43;3.40;;;2.90;;
9970;SDS011;5026;51.494;11.974;2023-06-14T08:20:10;4.35;;;3.45;;
9970;SDS011;5026;51.494;11.974;2023-06-14T08:22:38;4.22;;;2.97;;
9970;SDS011;5026;51.494;11.974;2023-06-14T08:25:07;3.25;;;2.95;;
9970;SDS011;5026;51.494;11.974;2023-06-14T08:27:35;3.33;;;3.03;;
9970;SDS011;5026;51.494;11.974;2023-06-14T08:30:02;7.35;;;3.25;;
9970;SDS011;5026;51.494;11.974;2023-06-14T08:32:29;5.13;;;3.20;;
9970;SDS011;5026;51.494;11.974;2023-06-14T08:34:57;5.65;;;3.40;;
9970;SDS011;5026;51.494;11.974;2023-06-14T08:37:24;4.07;;;3.55;;
9970;SDS011;5026;51.494;11.974;2023-06-14T08:39:52;6.13;;;3.47;;
9970;SDS011;5026;51.494;11.974;2023-06-14T08:42:18;3.53;;;3.20;;
9970;SDS011;5026;51.494;11.974;2023-06-14T08:44:50;3.45;;;3.05;;
9970;SDS011;5026;51.494;11.974;2023-06-14T08:47:17;6.20;;;3.45;;
9970;SDS011;5026;51.494;11.974;2023-06-14T08:49:46;8.88;;;2.83;;
9970;SDS011;5026;51.494;11.974;2023-06-14T08:52:15;7.10;;;3.30;;
9970;SDS011;5026;51.494;11.974;2023-06-14T08:54:47;3.38;;;3.10;;
9970;SDS011;5026;51.494;11.974;2023-06-14T08:57:16;4.43;;;3.33;;
9970;SDS011;5026;51.494;11.974;2023-06-14T08:59:46;4.80;;;3.45;;
9970;SDS011;5026;51.494;11.974;2023-06-14T09:02:17;5.00;;;3.28;;
9970;SDS011;5026;51.494;11.974;2023-06-14T09:04:47;4.40;;;3.10;;
9970;SDS011;5026;51.494;11.974;2023-06-14T09:07:16;2.70;;;2.40;;
9970;SDS011;5026;51.494;11.974;2023-06-14T09:09:43;4.40;;;3.08;;
9970;SDS011;5026;51.494;11.974;2023-06-14T09:12:10;3.38;;;3.08;;
9970;SDS011;5026;51.494;11.974;2023-06-14T09:14:37;3.45;;;3.15;;
9970;SDS011;5026;51.494;11.974;2023-06-14T09:17:07;4.00;;;2.75;;
9970;SDS011;5026;51.494;11.974;2023-06-14T09:19:33;4.07;;;2.95;;
9970;SDS011;5026;51.494;11.974;2023-06-14T09:22:03;4.72;;;3.05;;
9970;SDS011;5026;51.494;11.974;2023-06-14T09:24:31;5.93;;;2.92;;
9970;SDS011;5026;51.494;11.974;2023-06-14T09:26:58;6.53;;;2.97;;
9970;SDS011;5026;51.494;11.974;2023-06-14T09:29:25;7.63;;;3.10;;
9970;SDS011;5026;51.494;11.974;2023-06-14T09:31:53;4.22;;;3.20;;
9970;SDS011;5026;51.494;11.974;2023-06-14T09:34:20;3.70;;;2.78;;
9970;SDS011;5026;51.494;11.974;2023-06-14T09:36:48;5.15;;;2.85;;
9970;SDS011;5026;51.494;11.974;2023-06-14T09:39:16;3.30;;;3.00;;
9970;SDS011;5026;51.494;11.974;2023-06-14T09:41:45;2.92;;;2.72;;
9970;SDS011;5026;51.494;11.974;2023-06-14T09:44:12;2.65;;;2.45;;
9970;SDS011;5026;51.494;11.974;2023-06-14T09:46:39;3.08;;;2.72;;
9970;SDS011;5026;51.494;11.974;2023-06-14T09:49:06;8.80;;;3.13;;
9970;SDS011;5026;51.494;11.974;2023-06-14T09:51:34;2.58;;;2.20;;
9970;SDS011;5026;51.494;11.974;2023-06-14T09:54:03;4.93;;;2.60;;
9970;SDS011;5026;51.494;11.974;2023-06-14T09:56:31;2.85;;;2.33;;
9970;SDS011;5026;51.494;11.974;2023-06-14T09:59:04;4.35;;;2.25;;
9970;SDS011;5026;51.494;11.974;2023-06-14T10:01:32;3.72;;;1.95;;
9970;SDS011;5026;51.494;11.974;2023-06-14T10:04:00;2.05;;;1.77;;
9970;SDS011;5026;51.494;11.974;2023-06-14T10:06:30;2.17;;;1.88;;
9970;SDS011;5026;51.494;11.974;2023-06-14T10:08:58;5.25;;;1.98;;
9970;SDS011;5026;51.494;11.974;2023-06-14T10:11:26;2.78;;;1.85;;
9970;SDS011;5026;51.494;11.974;2023-06-14T10:13:54;4.22;;;2.20;;
9970;SDS011;5026;51.494;11.974;2023-06-14T10:16:25;8.02;;;2.20;;
9970;SDS011;5026;51.494;11.974;2023-06-14T10:19:00;2.65;;;2.30;;
9970;SDS011;5026;51.494;11.974;2023-06-14T10:21:33;4.00;;;2.10;;
9970;SDS011;5026;51.494;11.974;2023-06-14T10:24:07;3.72;;;2.50;;
9970;SDS011;5026;51.494;11.974;2023-06-14T10:26:39;6.55;;;2.65;;
9970;SDS011;5026;51.494;11.974;2023-06-14T10:29:17;2.90;;;2.33;;
9970;SDS011;5026;51.494;11.974;2023-06-14T10:31:46;2.10;;;1.90;;
9970;SDS011;5026;51.494;11.974;2023-06-14T10:34:21;2.10;;;1.67;;
9970;SDS011;5026;51.494;11.974;2023-06-14T10:39:32;2.38;;;2.17;;
9970;SDS011;5026;51.494;11.974;2023-06-14T10:42:05;3.40;;;2.10;;
9970;SDS011;5026;51.494;11.974;2023-06-14T10:44:39;3.08;;;1.98;;
9970;SDS011;5026;51.494;11.974;2023-06-14T10:47:09;4.07;;;2.42;;
9970;SDS011;5026;51.494;11.974;2023-06-14T10:49:38;2.53;;;1.80;;
9970;SDS011;5026;51.494;11.974;2023-06-14T10:52:11;2.50;;;2.20;;
9970;SDS011;5026;51.494;11.974;2023-06-14T10:57:34;3.88;;;2.35;;
9970;SDS011;5026;51.494;11.974;2023-06-14T11:00:02;3.72;;;2.30;;
9970;SDS011;5026;51.494;11.974;2023-06-14T11:02:48;4.80;;;2.63;;
9970;SDS011;5026;51.494;11.974;2023-06-14T11:05:52;4.05;;;2.10;;
9970;SDS011;5026;51.494;11.974;2023-06-14T11:08:27;2.75;;;2.13;;
9970;SDS011;5026;51.494;11.974;2023-06-14T11:11:11;4.13;;;2.50;;
9970;SDS011;5026;51.494;11.974;2023-06-14T11:13:41;4.80;;;2.33;;
9970;SDS011;5026;51.494;11.974;2023-06-14T11:16:11;3.40;;;2.55;;
9970;SDS011;5026;51.494;11.974;2023-06-14T11:18:40;4.15;;;2.25;;
9970;SDS011;5026;51.494;11.974;2023-06-14T11:21:07;5.57;;;2.60;;
9970;SDS011;5026;51.494;11.974;2023-06-14T11:23:34;3.72;;;2.90;;
9970;SDS011;5026;51.494;11.974;2023-06-14T11:26:02;2.92;;;2.63;;
9970;SDS011;5026;51.494;11.974;2023-06-14T11:28:36;5.07;;;2.40;;
9970;SDS011;5026;51.494;11.974;2023-06-14T11:31:04;2.78;;;2.58;;
9970;SDS011;5026;51.494;11.974;2023-06-14T11:33:31;3.15;;;2.40;;
9970;SDS011;5026;51.494;11.974;2023-06-14T11:36:01;2.92;;;2.60;;
9970;SDS011;5026;51.494;11.974;2023-06-14T11:38:29;3.15;;;2.45;;
9970;SDS011;5026;51.494;11.974;2023-06-14T11:40:58;2.72;;;2.53;;
9970;SDS011;5026;51.494;11.974;2023-06-14T11:43:26;3.83;;;2.83;;
9970;SDS011;5026;51.494;11.974;2023-06-14T11:45:54;2.70;;;2.50;;
9970;SDS011;5026;51.494;11.974;2023-06-14T11:48:21;5.47;;;3.15;;
9970;SDS011;5026;51.494;11.974;2023-06-14T11:50:49;4.90;;;2.90;;
9970;SDS011;5026;51.494;11.974;2023-06-14T11:53:18;3.97;;;3.05;;
9970;SDS011;5026;51.494;11.974;2023-06-14T11:55:45;3.70;;;2.85;;
9970;SDS011;5026;51.494;11.974;2023-06-14T11:58:12;3.80;;;2.35;;
9970;SDS011;5026;51.494;11.974;2023-06-14T12:00:40;3.10;;;2.80;;
9970;SDS011;5026;51.494;11.974;2023-06-14T12:03:08;5.82;;;2.80;;
9970;SDS011;5026;51.494;11.974;2023-06-14T12:05:35;3.53;;;2.95;;
9970;SDS011;5026;51.494;11.974;2023-06-14T12:08:02;3.08;;;2.83;;
9970;SDS011;5026;51.494;11.974;2023-06-14T12:10:33;3.92;;;3.03;;
9970;SDS011;5026;51.494;11.974;2023-06-14T12:13:05;4.05;;;3.05;;
9970;SDS011;5026;51.494;11.974;2023-06-14T12:15:33;3.63;;;2.53;;
9970;SDS011;5026;51.494;11.974;2023-06-14T12:18:00;6.13;;;2.90;;
9970;SDS011;5026;51.494;11.974;2023-06-14T12:20:28;5.07;;;2.95;;
9970;SDS011;5026;51.494;11.974;2023-06-14T12:22:57;3.08;;;2.75;;
9970;SDS011;5026;51.494;11.974;2023-06-14T12:25:26;3.60;;;2.90;;
9970;SDS011;5026;51.494;11.974;2023-06-14T12:27:57;4.10;;;2.95;;
9970;SDS011;5026;51.494;11.974;2023-06-14T12:30:24;4.38;;;3.90;;
9970;SDS011;5026;51.494;11.974;2023-06-14T12:32:52;4.85;;;3.30;;
9970;SDS011;5026;51.494;11.974;2023-06-14T12:35:19;5.72;;;3.47;;
9970;SDS011;5026;51.494;11.974;2023-06-14T12:37:46;6.60;;;3.35;;
9970;SDS011;5026;51.494;11.974;2023-06-14T12:40:13;11.77;;;3.28;;
9970;SDS011;5026;51.494;11.974;2023-06-14T12:42:41;5.57;;;2.92;;
9970;SDS011;5026;51.494;11.974;2023-06-14T12:45:10;4.00;;;2.88;;
9970;SDS011;5026;51.494;11.974;2023-06-14T12:47:37;3.88;;;3.15;;
9970;SDS011;5026;51.494;11.974;2023-06-14T12:50:04;3.30;;;3.00;;
9970;SDS011;5026;51.494;11.974;2023-06-14T12:52:32;6.85;;;2.88;;
9970;SDS011;5026;51.494;11.974;2023-06-14T12:55:01;7.45;;;3.63;;
9970;SDS011;5026;51.494;11.974;2023-06-14T12:57:29;4.78;;;3.28;;
9970;SDS011;5026;51.494;11.974;2023-06-14T12:59:56;4.97;;;3.03;;
9970;SDS011;5026;51.494;11.974;2023-06-14T13:02:24;4.70;;;3.50;;
9970;SDS011;5026;51.494;11.974;2023-06-14T13:04:52;6.35;;;3.60;;
9970;SDS011;5026;51.494;11.974;2023-06-14T13:07:18;8.82;;;3.55;;
9970;SDS011;5026;51.494;11.974;2023-06-14T13:09:45;3.92;;;3.60;;
9970;SDS011;5026;51.494;11.974;2023-06-14T13:12:13;5.13;;;3.80;;
9970;SDS011;5026;51.494;11.974;2023-06-14T13:14:40;4.50;;;3.38;;
9970;SDS011;5026;51.494;11.974;2023-06-14T13:17:07;5.13;;;3.15;;
9970;SDS011;5026;51.494;11.974;2023-06-14T13:19:36;3.92;;;3.33;;
9970;SDS011;5026;51.494;11.974;2023-06-14T13:22:03;4.22;;;3.58;;
9970;SDS011;5026;51.494;11.974;2023-06-14T13:24:31;4.22;;;3.20;;
9970;SDS011;5026;51.494;11.974;2023-06-14T13:26:58;3.17;;;2.88;;
9970;SDS011;5026;51.494;11.974;2023-06-14T13:29:25;4.30;;;3.65;;
9970;SDS011;5026;51.494;11.974;2023-06-14T13:31:53;5.72;;;3.20;;
9970;SDS011;5026;51.494;11.974;2023-06-14T13:34:20;6.88;;;3.25;;
9970;SDS011;5026;51.494;11.974;2023-06-14T13:36:49;4.90;;;3.00;;
9970;SDS011;5026;51.494;11.974;2023-06-14T13:39:16;5.78;;;3.00;;
9970;SDS011;5026;51.494;11.974;2023-06-14T13:41:43;3.92;;;3.15;;
9970;SDS011;5026;51.494;11.974;2023-06-14T14:30:53;3.45;;;2.88;;
9970;SDS011;5026;51.494;11.974;2023-06-14T14:33:37;4.78;;;2.42;;
9970;SDS011;5026;51.494;11.974;2023-06-14T14:39:27;3.83;;;3.20;;
9970;SDS011;5026;51.494;11.974;2023-06-14T14:41:55;3.13;;;2.80;;
9970;SDS011;5026;51.494;11.974;2023-06-14T14:44:23;3.38;;;3.08;;
9970;SDS011;5026;51.494;11.974;2023-06-14T14:46:50;5.57;;;2.80;;
9970;SDS011;5026;51.494;11.974;2023-06-14T14:49:17;3.17;;;2.88;;
9970;SDS011;5026;51.494;11.974;2023-06-14T14:51:44;4.63;;;3.03;;
9970;SDS011;5026;51.494;11.974;2023-06-14T14:54:11;6.07;;;3.25;;
9970;SDS011;5026;51.494;11.974;2023-06-14T14:56:38;3.17;;;2.88;;
9970;SDS011;5026;51.494;11.974;2023-06-14T14:59:05;4.82;;;2.80;;
9970;SDS011;5026;51.494;11.974;2023-06-14T15:01:33;3.28;;;2.70;;
9970;SDS011;5026;51.494;11.974;2023-06-14T15:04:00;7.22;;;2.88;;
9970;SDS011;5026;51.494;11.974;2023-06-14T15:06:27;5.22;;;2.75;;
9970;SDS011;5026;51.494;11.974;2023-06-14T15:08:54;4.32;;;2.70;;
9970;SDS011;5026;51.494;11.974;2023-06-14T15:11:21;4.47;;;2.95;;
9970;SDS011;5026;51.494;11.974;2023-06-14T15:13:48;4.10;;;2.83;;
9970;SDS011;5026;51.494;11.974;2023-06-14T15:16:15;3.38;;;3.08;;
9970;SDS011;5026;51.494;11.974;2023-06-14T15:18:44;8.60;;;2.95;;
9970;SDS011;5026;51.494;11.974;2023-06-14T15:21:11;3.00;;;2.70;;
9970;SDS011;5026;51.494;11.974;2023-06-14T15:23:38;3.15;;;2.38;;
9970;SDS011;5026;51.494;11.974;2023-06-14T15:26:05;2.88;;;2.55;;
9970;SDS011;5026;51.494;11.974;2023-06-14T15:28:32;4.22;;;3.13;;
9970;SDS011;5026;51.494;11.974;2023-06-14T15:30:59;2.85;;;2.65;;
9970;SDS011;5026;51.494;11.974;2023-06-14T15:33:26;4.53;;;2.80;;
9970;SDS011;5026;51.494;11.974;2023-06-14T15:35:55;4.13;;;2.90;;
9970;SDS011;5026;51.494;11.974;2023-06-14T15:38:22;4.55;;;3.10;;
9970;SDS011;5026;51.494;11.974;2023-06-14T15:40:49;3.67;;;2.60;;
9970;SDS011;5026;51.494;11.974;2023-06-14T15:43:16;3.63;;;2.67;;
9970;SDS011;5026;51.494;11.974;2023-06-14T15:45:43;3.83;;;2.42;;
9970;SDS011;5026;51.494;11.974;2023-06-14T15:48:10;5.88;;;2.90;;
9970;SDS011;5026;51.494;11.974;2023-06-14T15:50:37;5.35;;;2.95;;
9970;SDS011;5026;51.494;11.974;2023-06-14T15:53:06;2.55;;;2.35;;
9970;SDS011;5026;51.494;11.974;2023-06-14T15:55:32;3.65;;;2.95;;
9970;SDS011;5026;51.494;11.974;2023-06-14T15:58:00;7.35;;;2.72;;
9970;SDS011;5026;51.494;11.974;2023-06-14T16:00:27;5.32;;;2.50;;
9970;SDS011;5026;51.494;11.974;2023-06-14T16:02:54;6.40;;;2.65;;